sensor_id;sensor_type;location;lat;lon;timestamp;temperature;humidity
3408;DHT22;1717;50.240;8.406;2023-10-08T00:01:38;16.30;99.90
3408;DHT22;1717;50.240;8.406;2023-10-08T00:04:08;16.30;99.90
3408;DHT22;1717;50.240;8.406;2023-10-08T00:06:36;16.30;99.90
3408;DHT22;1717;50.240;8.406;2023-10-08T00:09:03;16.30;99.90
3408;DHT22;1717;50.240;8.406;2023-10-08T00:11:34;16.30;99.90
3408;DHT22;1717;50.240;8.406;2023-10-08T00:14:02;16.30;99.90
3408;DHT22;1717;50.240;8.406;2023-10-08T00:16:32;16.30;99.90
3408;DHT22;1717;50.240;8.406;2023-10-08T00:18:59;16.40;99.90
3408;DHT22;1717;50.240;8.406;2023-10-08T00:21:33;16.40;99.90
3408;DHT22;1717;50.240;8.406;2023-10-08T00:24:02;16.40;99.90
3408;DHT22;1717;50.240;8.406;2023-10-08T00:26:33;16.40;99.90
3408;DHT22;1717;50.240;8.406;2023-10-08T00:29:02;16.50;99.90
3408;DHT22;1717;50.240;8.406;2023-10-08T00:31:33;16.50;99.90
3408;DHT22;1717;50.240;8.406;2023-10-08T00:34:04;16.60;99.90
3408;DHT22;1717;50.240;8.406;2023-10-08T00:36:32;16.60;99.90
3408;DHT22;1717;50.240;8.406;2023-10-08T00:38:59;16.70;99.90
3408;DHT22;1717;50.240;8.406;2023-10-08T00:41:27;16.70;99.90
3408;DHT22;1717;50.240;8.406;2023-10-08T00:43:56;16.70;99.90
3408;DHT22;1717;50.240;8.406;2023-10-08T00:46:25;16.70;99.90
3408;DHT22;1717;50.240;8.406;2023-10-08T00:49:00;16.80;99.90
3408;DHT22;1717;50.240;8.406;2023-10-08T00:51:43;16.70;99.90
3408;DHT22;1717;50.240;8.406;2023-10-08T00:54:24;16.80;99.90
3408;DHT22;1717;50.240;8.406;2023-10-08T00:56:59;16.80;99.90
3408;DHT22;1717;50.240;8.406;2023-10-08T00:59:31;16.80;99.90
3408;DHT22;1717;50.240;8.406;2023-10-08T01:02:02;16.90;99.90
3408;DHT22;1717;50.240;8.406;2023-10-08T01:04:33;16.90;99.90
3408;DHT22;1717;50.240;8.406;2023-10-08T01:07:01;16.90;99.90
3408;DHT22;1717;50.240;8.406;2023-10-08T01:09:38;16.90;99.90
3408;DHT22;1717;50.240;8.406;2023-10-08T01:12:09;17.00;99.90
3408;DHT22;1717;50.240;8.406;2023-10-08T01:14:38;16.90;99.90
3408;DHT22;1717;50.240;8.406;2023-10-08T01:17:08;17.00;99.90
3408;DHT22;1717;50.240;8.406;2023-10-08T01:19:36;16.90;99.90
3408;DHT22;1717;50.240;8.406;2023-10-08T01:22:12;16.80;99.90
3408;DHT22;1717;50.240;8.406;2023-10-08T01:24:43;16.70;99.90
3408;DHT22;1717;50.240;8.406;2023-10-08T01:27:11;16.70;99.90
3408;DHT22;1717;50.240;8.406;2023-10-08T01:29:38;16.70;99.90
3408;DHT22;1717;50.240;8.406;2023-10-08T01:32:05;16.60;99.90
3408;DHT22;1717;50.240;8.406;2023-10-08T01:34:36;16.70;99.90
3408;DHT22;1717;50.240;8.406;2023-10-08T01:37:04;16.70;99.90
3408;DHT22;1717;50.240;8.406;2023-10-08T01:39:36;16.50;99.90
3408;DHT22;1717;50.240;8.406;2023-10-08T01:42:05;16.40;99.90
3408;DHT22;1717;50.240;8.406;2023-10-08T01:44:40;16.30;99.90
3408;DHT22;1717;50.240;8.406;2023-10-08T01:47:07;16.20;99.90
3408;DHT22;1717;50.240;8.406;2023-10-08T01:49:37;16.20;99.90
3408;DHT22;1717;50.240;8.406;2023-10-08T01:52:05;16.10;99.90
3408;DHT22;1717;50.240;8.406;2023-10-08T01:54:39;16.10;99.90
3408;DHT22;1717;50.240;8.406;2023-10-08T01:57:06;16.00;99.90
3408;DHT22;1717;50.240;8.406;2023-10-08T01:59:35;16.00;99.90
3408;DHT22;1717;50.240;8.406;2023-10-08T02:02:04;16.00;99.90
3408;DHT22;1717;50.240;8.406;2023-10-08T02:04:32;15.90;99.90
3408;DHT22;1717;50.240;8.406;2023-10-08T02:07:01;15.90;99.90
3408;DHT22;1717;50.240;8.406;2023-10-08T02:09:29;15.90;99.90
3408;DHT22;1717;50.240;8.406;2023-10-08T02:12:00;15.90;99.90
3408;DHT22;1717;50.240;8.406;2023-10-08T02:14:26;15.80;99.90
3408;DHT22;1717;50.240;8.406;2023-10-08T02:16:57;15.80;99.90
3408;DHT22;1717;50.240;8.406;2023-10-08T02:19:26;15.80;99.90
3408;DHT22;1717;50.240;8.406;2023-10-08T02:21:54;15.80;99.90
3408;DHT22;1717;50.240;8.406;2023-10-08T02:24:21;15.70;99.90
3408;DHT22;1717;50.240;8.406;2023-10-08T02:26:50;15.70;99.90
3408;DHT22;1717;50.240;8.406;2023-10-08T02:29:18;15.70;99.90
3408;DHT22;1717;50.240;8.406;2023-10-08T02:31:45;15.70;99.90
3408;DHT22;1717;50.240;8.406;2023-10-08T02:34:13;15.60;99.90
3408;DHT22;1717;50.240;8.406;2023-10-08T02:36:40;15.60;99.90
3408;DHT22;1717;50.240;8.406;2023-10-08T02:39:08;15.40;99.90
3408;DHT22;1717;50.240;8.406;2023-10-08T02:41:42;15.70;99.90
3408;DHT22;1717;50.240;8.406;2023-10-08T02:44:11;15.50;99.90
3408;DHT22;1717;50.240;8.406;2023-10-08T02:46:41;15.50;99.90
3408;DHT22;1717;50.240;8.406;2023-10-08T02:49:10;15.50;99.90
3408;DHT22;1717;50.240;8.406;2023-10-08T02:51:45;15.50;99.90
3408;DHT22;1717;50.240;8.406;2023-10-08T02:54:12;15.30;99.90
3408;DHT22;1717;50.240;8.406;2023-10-08T02:56:44;15.50;99.90
3408;DHT22;1717;50.240;8.406;2023-10-08T02:59:12;15.50;99.90
3408;DHT22;1717;50.240;8.406;2023-10-08T03:01:41;15.50;99.90
3408;DHT22;1717;50.240;8.406;2023-10-08T03:04:08;15.50;99.90
3408;DHT22;1717;50.240;8.406;2023-10-08T03:06:44;15.40;99.90
3408;DHT22;1717;50.240;8.406;2023-10-08T03:09:14;15.50;99.90
3408;DHT22;1717;50.240;8.406;2023-10-08T03:11:46;15.40;99.90
3408;DHT22;1717;50.240;8.406;2023-10-08T03:14:14;15.50;99.90
3408;DHT22;1717;50.240;8.406;2023-10-08T03:16:49;15.40;99.90
3408;DHT22;1717;50.240;8.406;2023-10-08T03:19:16;15.40;99.90
3408;DHT22;1717;50.240;8.406;2023-10-08T03:21:46;15.40;99.90
3408;DHT22;1717;50.240;8.406;2023-10-08T03:24:17;15.40;99.90
3408;DHT22;1717;50.240;8.406;2023-10-08T03:27:09;15.40;99.90
3408;DHT22;1717;50.240;8.406;2023-10-08T03:29:41;15.40;99.90
3408;DHT22;1717;50.240;8.406;2023-10-08T03:32:10;15.40;99.90
3408;DHT22;1717;50.240;8.406;2023-10-08T03:34:44;15.40;99.90
3408;DHT22;1717;50.240;8.406;2023-10-08T03:37:13;15.30;99.90
3408;DHT22;1717;50.240;8.406;2023-10-08T03:39:46;15.30;99.90
3408;DHT22;1717;50.240;8.406;2023-10-08T03:42:26;15.30;99.90
3408;DHT22;1717;50.240;8.406;2023-10-08T03:44:59;15.30;99.90
3408;DHT22;1717;50.240;8.406;2023-10-08T03:47:37;15.30;99.90
3408;DHT22;1717;50.240;8.406;2023-10-08T03:50:05;15.30;99.90
3408;DHT22;1717;50.240;8.406;2023-10-08T03:52:35;15.30;99.90
3408;DHT22;1717;50.240;8.406;2023-10-08T03:55:05;15.20;99.90
3408;DHT22;1717;50.240;8.406;2023-10-08T03:57:39;15.20;99.90
3408;DHT22;1717;50.240;8.406;2023-10-08T04:00:10;15.30;99.90
3408;DHT22;1717;50.240;8.406;2023-10-08T04:02:44;15.30;99.90
3408;DHT22;1717;50.240;8.406;2023-10-08T04:05:20;15.30;99.90
3408;DHT22;1717;50.240;8.406;2023-10-08T04:07:52;15.30;99.90
3408;DHT22;1717;50.240;8.406;2023-10-08T04:10:43;15.40;99.90
3408;DHT22;1717;50.240;8.406;2023-10-08T04:13:33;15.40;99.90
3408;DHT22;1717;50.240;8.406;2023-10-08T04:16:01;15.50;99.90
3408;DHT22;1717;50.240;8.406;2023-10-08T04:18:31;15.60;99.90
3408;DHT22;1717;50.240;8.406;2023-10-08T04:21:06;15.60;99.90
3408;DHT22;1717;50.240;8.406;2023-10-08T04:23:39;15.60;99.90
3408;DHT22;1717;50.240;8.406;2023-10-08T04:26:05;15.70;99.90
3408;DHT22;1717;50.240;8.406;2023-10-08T04:28:33;15.70;99.90
3408;DHT22;1717;50.240;8.406;2023-10-08T04:31:01;15.70;99.90
3408;DHT22;1717;50.240;8.406;2023-10-08T04:33:43;15.70;99.90
3408;DHT22;1717;50.240;8.406;2023-10-08T04:36:10;15.60;99.90
3408;DHT22;1717;50.240;8.406;2023-10-08T04:38:43;15.60;99.90
3408;DHT22;1717;50.240;8.406;2023-10-08T04:41:14;15.60;99.90
3408;DHT22;1717;50.240;8.406;2023-10-08T04:43:44;15.60;99.90
3408;DHT22;1717;50.240;8.406;2023-10-08T04:46:15;15.60;99.90
3408;DHT22;1717;50.240;8.406;2023-10-08T04:49:01;15.60;99.90
3408;DHT22;1717;50.240;8.406;2023-10-08T04:51:33;15.60;99.90
3408;DHT22;1717;50.240;8.406;2023-10-08T04:54:10;15.50;99.90
3408;DHT22;1717;50.240;8.406;2023-10-08T04:56:41;15.60;99.90
3408;DHT22;1717;50.240;8.406;2023-10-08T04:59:08;15.60;99.90
3408;DHT22;1717;50.240;8.406;2023-10-08T05:01:37;15.60;99.90
3408;DHT22;1717;50.240;8.406;2023-10-08T05:04:14;15.60;99.90
3408;DHT22;1717;50.240;8.406;2023-10-08T05:06:52;15.60;99.90
3408;DHT22;1717;50.240;8.406;2023-10-08T05:09:27;15.70;99.90
3408;DHT22;1717;50.240;8.406;2023-10-08T05:12:13;15.50;99.90
3408;DHT22;1717;50.240;8.406;2023-10-08T05:15:00;15.50;99.90
3408;DHT22;1717;50.240;8.406;2023-10-08T05:17:46;15.50;99.90
3408;DHT22;1717;50.240;8.406;2023-10-08T05:20:24;15.50;99.90
3408;DHT22;1717;50.240;8.406;2023-10-08T05:23:11;15.40;99.90
3408;DHT22;1717;50.240;8.406;2023-10-08T05:26:07;15.30;99.90
3408;DHT22;1717;50.240;8.406;2023-10-08T05:28:36;15.40;99.90
3408;DHT22;1717;50.240;8.406;2023-10-08T05:31:13;15.30;99.90
3408;DHT22;1717;50.240;8.406;2023-10-08T05:34:02;15.30;99.90
3408;DHT22;1717;50.240;8.406;2023-10-08T05:36:44;15.40;99.90
3408;DHT22;1717;50.240;8.406;2023-10-08T05:39:36;15.40;99.90
3408;DHT22;1717;50.240;8.406;2023-10-08T05:42:08;15.50;99.90
3408;DHT22;1717;50.240;8.406;2023-10-08T05:44:39;15.50;99.90
3408;DHT22;1717;50.240;8.406;2023-10-08T05:47:11;15.50;99.90
3408;DHT22;1717;50.240;8.406;2023-10-08T05:49:58;15.50;99.90
3408;DHT22;1717;50.240;8.406;2023-10-08T05:52:40;15.50;99.90
3408;DHT22;1717;50.240;8.406;2023-10-08T05:55:16;15.50;99.90
3408;DHT22;1717;50.240;8.406;2023-10-08T05:57:51;15.60;99.90
3408;DHT22;1717;50.240;8.406;2023-10-08T06:00:28;15.60;99.90
3408;DHT22;1717;50.240;8.406;2023-10-08T06:03:28;15.50;99.90
3408;DHT22;1717;50.240;8.406;2023-10-08T06:06:11;15.50;99.90
3408;DHT22;1717;50.240;8.406;2023-10-08T06:09:04;15.60;99.90
3408;DHT22;1717;50.240;8.406;2023-10-08T06:11:47;15.60;99.90
3408;DHT22;1717;50.240;8.406;2023-10-08T06:14:32;15.70;99.90
3408;DHT22;1717;50.240;8.406;2023-10-08T06:17:18;15.70;99.90
3408;DHT22;1717;50.240;8.406;2023-10-08T06:20:00;15.70;99.90
3408;DHT22;1717;50.240;8.406;2023-10-08T06:22:42;15.70;99.90
3408;DHT22;1717;50.240;8.406;2023-10-08T06:25:11;15.70;99.90
3408;DHT22;1717;50.240;8.406;2023-10-08T06:27:42;15.70;99.90
3408;DHT22;1717;50.240;8.406;2023-10-08T06:30:11;15.80;99.90
3408;DHT22;1717;50.240;8.406;2023-10-08T06:32:42;15.80;99.90
3408;DHT22;1717;50.240;8.406;2023-10-08T06:35:11;15.80;99.90
3408;DHT22;1717;50.240;8.406;2023-10-08T06:37:43;15.80;99.90
3408;DHT22;1717;50.240;8.406;2023-10-08T06:40:12;16.00;99.90
3408;DHT22;1717;50.240;8.406;2023-10-08T06:43:02;15.90;99.90
3408;DHT22;1717;50.240;8.406;2023-10-08T06:45:40;15.90;99.90
3408;DHT22;1717;50.240;8.406;2023-10-08T06:48:07;16.00;99.90
3408;DHT22;1717;50.240;8.406;2023-10-08T06:50:34;16.00;99.90
3408;DHT22;1717;50.240;8.406;2023-10-08T06:53:02;16.10;99.90
3408;DHT22;1717;50.240;8.406;2023-10-08T06:55:34;16.20;99.90
3408;DHT22;1717;50.240;8.406;2023-10-08T06:58:02;16.20;99.90
3408;DHT22;1717;50.240;8.406;2023-10-08T07:00:32;16.20;99.90
3408;DHT22;1717;50.240;8.406;2023-10-08T07:03:05;16.20;99.90
3408;DHT22;1717;50.240;8.406;2023-10-08T07:05:33;16.30;99.90
3408;DHT22;1717;50.240;8.406;2023-10-08T07:08:02;16.30;99.90
3408;DHT22;1717;50.240;8.406;2023-10-08T07:10:33;16.30;99.90
3408;DHT22;1717;50.240;8.406;2023-10-08T07:13:00;16.40;99.90
3408;DHT22;1717;50.240;8.406;2023-10-08T07:15:29;16.40;99.90
3408;DHT22;1717;50.240;8.406;2023-10-08T07:17:56;16.40;99.90
3408;DHT22;1717;50.240;8.406;2023-10-08T07:20:34;16.50;99.90
3408;DHT22;1717;50.240;8.406;2023-10-08T07:23:05;16.50;99.90
3408;DHT22;1717;50.240;8.406;2023-10-08T07:25:36;16.60;99.90
3408;DHT22;1717;50.240;8.406;2023-10-08T07:28:04;16.80;99.90
3408;DHT22;1717;50.240;8.406;2023-10-08T07:30:38;16.60;99.90
3408;DHT22;1717;50.240;8.406;2023-10-08T07:33:09;16.60;99.90
3408;DHT22;1717;50.240;8.406;2023-10-08T07:35:43;16.70;99.90
3408;DHT22;1717;50.240;8.406;2023-10-08T07:38:17;16.80;99.90
3408;DHT22;1717;50.240;8.406;2023-10-08T07:40:45;16.70;99.90
3408;DHT22;1717;50.240;8.406;2023-10-08T07:43:12;16.80;99.90
3408;DHT22;1717;50.240;8.406;2023-10-08T07:45:39;16.90;99.90
3408;DHT22;1717;50.240;8.406;2023-10-08T07:48:11;16.90;99.90
3408;DHT22;1717;50.240;8.406;2023-10-08T07:50:44;17.00;99.90
3408;DHT22;1717;50.240;8.406;2023-10-08T07:53:12;17.00;99.90
3408;DHT22;1717;50.240;8.406;2023-10-08T07:55:47;17.10;99.90
3408;DHT22;1717;50.240;8.406;2023-10-08T07:58:15;17.10;99.90
3408;DHT22;1717;50.240;8.406;2023-10-08T08:00:43;17.20;99.90
3408;DHT22;1717;50.240;8.406;2023-10-08T08:03:18;17.20;99.90
3408;DHT22;1717;50.240;8.406;2023-10-08T08:05:46;17.30;99.90
3408;DHT22;1717;50.240;8.406;2023-10-08T08:08:13;17.50;99.90
3408;DHT22;1717;50.240;8.406;2023-10-08T08:10:44;17.40;99.90
3408;DHT22;1717;50.240;8.406;2023-10-08T08:13:12;17.50;99.90
3408;DHT22;1717;50.240;8.406;2023-10-08T08:15:46;17.60;99.90
3408;DHT22;1717;50.240;8.406;2023-10-08T08:18:16;17.70;99.90
3408;DHT22;1717;50.240;8.406;2023-10-08T08:20:48;17.70;99.90
3408;DHT22;1717;50.240;8.406;2023-10-08T08:23:15;17.70;99.90
3408;DHT22;1717;50.240;8.406;2023-10-08T08:25:43;17.80;99.90
3408;DHT22;1717;50.240;8.406;2023-10-08T08:28:32;17.80;99.90
3408;DHT22;1717;50.240;8.406;2023-10-08T08:31:02;17.90;99.90
3408;DHT22;1717;50.240;8.406;2023-10-08T08:33:34;17.90;99.90
3408;DHT22;1717;50.240;8.406;2023-10-08T08:36:18;18.00;99.90
3408;DHT22;1717;50.240;8.406;2023-10-08T08:38:46;18.00;99.90
3408;DHT22;1717;50.240;8.406;2023-10-08T08:41:13;18.10;99.90
3408;DHT22;1717;50.240;8.406;2023-10-08T08:43:47;18.10;99.90
3408;DHT22;1717;50.240;8.406;2023-10-08T08:46:14;18.10;99.90
3408;DHT22;1717;50.240;8.406;2023-10-08T08:48:43;18.20;99.90
3408;DHT22;1717;50.240;8.406;2023-10-08T08:51:11;18.20;99.90
3408;DHT22;1717;50.240;8.406;2023-10-08T08:53:39;18.20;99.90
3408;DHT22;1717;50.240;8.406;2023-10-08T08:56:07;18.30;99.90
3408;DHT22;1717;50.240;8.406;2023-10-08T08:58:36;18.30;99.90
3408;DHT22;1717;50.240;8.406;2023-10-08T09:01:06;18.30;99.90
3408;DHT22;1717;50.240;8.406;2023-10-08T09:03:35;18.30;99.90
3408;DHT22;1717;50.240;8.406;2023-10-08T09:06:03;18.40;99.90
3408;DHT22;1717;50.240;8.406;2023-10-08T09:08:33;18.40;99.90
3408;DHT22;1717;50.240;8.406;2023-10-08T09:11:01;18.40;99.90
3408;DHT22;1717;50.240;8.406;2023-10-08T09:13:31;18.50;99.90
3408;DHT22;1717;50.240;8.406;2023-10-08T09:16:07;18.50;99.90
3408;DHT22;1717;50.240;8.406;2023-10-08T09:18:35;18.50;99.90
3408;DHT22;1717;50.240;8.406;2023-10-08T09:21:13;18.50;99.90
3408;DHT22;1717;50.240;8.406;2023-10-08T09:23:41;18.60;99.90
3408;DHT22;1717;50.240;8.406;2023-10-08T09:26:13;18.60;99.90
3408;DHT22;1717;50.240;8.406;2023-10-08T09:28:40;18.60;99.90
3408;DHT22;1717;50.240;8.406;2023-10-08T09:31:14;18.60;99.90
3408;DHT22;1717;50.240;8.406;2023-10-08T09:33:41;18.60;99.90
3408;DHT22;1717;50.240;8.406;2023-10-08T09:36:09;18.60;99.90
3408;DHT22;1717;50.240;8.406;2023-10-08T09:38:44;18.60;99.90
3408;DHT22;1717;50.240;8.406;2023-10-08T09:41:13;18.70;99.90
3408;DHT22;1717;50.240;8.406;2023-10-08T09:43:41;18.70;99.90
3408;DHT22;1717;50.240;8.406;2023-10-08T09:46:12;18.70;99.90
3408;DHT22;1717;50.240;8.406;2023-10-08T09:48:42;18.70;99.90
3408;DHT22;1717;50.240;8.406;2023-10-08T09:51:11;18.80;99.90
3408;DHT22;1717;50.240;8.406;2023-10-08T09:53:46;18.80;99.90
3408;DHT22;1717;50.240;8.406;2023-10-08T09:56:14;18.80;99.90
3408;DHT22;1717;50.240;8.406;2023-10-08T09:58:43;18.90;99.90
3408;DHT22;1717;50.240;8.406;2023-10-08T10:01:11;18.90;99.90
3408;DHT22;1717;50.240;8.406;2023-10-08T10:03:38;19.00;99.90
3408;DHT22;1717;50.240;8.406;2023-10-08T10:06:13;19.00;99.90
3408;DHT22;1717;50.240;8.406;2023-10-08T10:08:42;19.00;99.90
3408;DHT22;1717;50.240;8.406;2023-10-08T10:11:09;19.10;99.90
3408;DHT22;1717;50.240;8.406;2023-10-08T10:13:42;19.10;99.90
3408;DHT22;1717;50.240;8.406;2023-10-08T10:16:10;19.10;99.90
3408;DHT22;1717;50.240;8.406;2023-10-08T10:18:39;19.20;99.90
3408;DHT22;1717;50.240;8.406;2023-10-08T10:21:26;19.20;99.90
3408;DHT22;1717;50.240;8.406;2023-10-08T10:23:54;19.20;99.90
3408;DHT22;1717;50.240;8.406;2023-10-08T10:26:24;19.30;99.90
3408;DHT22;1717;50.240;8.406;2023-10-08T10:29:19;19.30;99.90
3408;DHT22;1717;50.240;8.406;2023-10-08T10:31:48;19.30;99.90
3408;DHT22;1717;50.240;8.406;2023-10-08T10:34:20;19.30;99.90
3408;DHT22;1717;50.240;8.406;2023-10-08T10:36:49;19.30;99.90
3408;DHT22;1717;50.240;8.406;2023-10-08T10:39:22;19.30;99.90
3408;DHT22;1717;50.240;8.406;2023-10-08T10:41:54;19.20;99.90
3408;DHT22;1717;50.240;8.406;2023-10-08T10:44:23;19.30;99.90
3408;DHT22;1717;50.240;8.406;2023-10-08T10:46:50;19.30;99.90
3408;DHT22;1717;50.240;8.406;2023-10-08T10:49:17;19.30;99.90
3408;DHT22;1717;50.240;8.406;2023-10-08T10:51:49;19.40;99.90
3408;DHT22;1717;50.240;8.406;2023-10-08T10:54:23;19.40;99.90
3408;DHT22;1717;50.240;8.406;2023-10-08T10:56:49;19.40;99.90
3408;DHT22;1717;50.240;8.406;2023-10-08T10:59:29;19.40;99.90
3408;DHT22;1717;50.240;8.406;2023-10-08T11:02:03;19.50;99.90
3408;DHT22;1717;50.240;8.406;2023-10-08T11:04:34;19.50;99.90
3408;DHT22;1717;50.240;8.406;2023-10-08T11:07:14;19.50;99.90
3408;DHT22;1717;50.240;8.406;2023-10-08T11:09:42;19.60;99.90
3408;DHT22;1717;50.240;8.406;2023-10-08T11:12:12;19.60;99.90
3408;DHT22;1717;50.240;8.406;2023-10-08T11:14:46;19.60;99.90
3408;DHT22;1717;50.240;8.406;2023-10-08T11:17:16;19.60;99.90
3408;DHT22;1717;50.240;8.406;2023-10-08T11:19:43;19.60;99.90
3408;DHT22;1717;50.240;8.406;2023-10-08T11:22:11;19.60;99.90
3408;DHT22;1717;50.240;8.406;2023-10-08T11:24:44;19.70;99.30
3408;DHT22;1717;50.240;8.406;2023-10-08T11:27:13;19.70;97.00
3408;DHT22;1717;50.240;8.406;2023-10-08T11:29:43;19.80;98.70
3408;DHT22;1717;50.240;8.406;2023-10-08T11:32:12;19.80;97.90
3408;DHT22;1717;50.240;8.406;2023-10-08T11:34:41;19.80;98.60
3408;DHT22;1717;50.240;8.406;2023-10-08T11:37:08;19.80;98.70
3408;DHT22;1717;50.240;8.406;2023-10-08T11:39:47;19.90;99.90
3408;DHT22;1717;50.240;8.406;2023-10-08T11:42:15;20.00;99.90
3408;DHT22;1717;50.240;8.406;2023-10-08T11:45:00;19.90;99.90
3408;DHT22;1717;50.240;8.406;2023-10-08T11:47:43;19.90;99.90
3408;DHT22;1717;50.240;8.406;2023-10-08T11:50:11;19.90;99.90
3408;DHT22;1717;50.240;8.406;2023-10-08T11:52:42;20.00;99.90
3408;DHT22;1717;50.240;8.406;2023-10-08T11:55:11;20.00;99.90
3408;DHT22;1717;50.240;8.406;2023-10-08T11:57:45;20.00;99.90
3408;DHT22;1717;50.240;8.406;2023-10-08T12:00:15;20.00;99.90
3408;DHT22;1717;50.240;8.406;2023-10-08T12:02:51;20.10;99.90
3408;DHT22;1717;50.240;8.406;2023-10-08T12:05:20;20.10;99.90
3408;DHT22;1717;50.240;8.406;2023-10-08T12:07:49;20.10;99.90
3408;DHT22;1717;50.240;8.406;2023-10-08T12:10:19;20.20;99.90
3408;DHT22;1717;50.240;8.406;2023-10-08T12:12:49;20.20;99.90
3408;DHT22;1717;50.240;8.406;2023-10-08T12:15:18;20.20;99.90
3408;DHT22;1717;50.240;8.406;2023-10-08T12:17:49;20.20;99.90
3408;DHT22;1717;50.240;8.406;2023-10-08T12:20:35;20.30;99.90
3408;DHT22;1717;50.240;8.406;2023-10-08T12:23:03;20.30;99.90
3408;DHT22;1717;50.240;8.406;2023-10-08T12:25:32;20.30;99.90
3408;DHT22;1717;50.240;8.406;2023-10-08T12:28:00;20.40;99.90
3408;DHT22;1717;50.240;8.406;2023-10-08T12:30:30;20.40;99.90
3408;DHT22;1717;50.240;8.406;2023-10-08T12:33:07;20.50;99.90
3408;DHT22;1717;50.240;8.406;2023-10-08T12:35:38;20.50;99.90
3408;DHT22;1717;50.240;8.406;2023-10-08T12:38:05;20.50;99.90
3408;DHT22;1717;50.240;8.406;2023-10-08T12:40:35;20.60;99.90
3408;DHT22;1717;50.240;8.406;2023-10-08T12:43:13;20.60;99.90
3408;DHT22;1717;50.240;8.406;2023-10-08T12:45:42;20.70;99.90
3408;DHT22;1717;50.240;8.406;2023-10-08T12:48:10;20.70;99.90
3408;DHT22;1717;50.240;8.406;2023-10-08T12:50:39;20.80;99.90
3408;DHT22;1717;50.240;8.406;2023-10-08T12:53:08;20.80;99.90
3408;DHT22;1717;50.240;8.406;2023-10-08T12:55:38;20.90;99.90
3408;DHT22;1717;50.240;8.406;2023-10-08T12:58:06;21.00;99.90
3408;DHT22;1717;50.240;8.406;2023-10-08T13:00:35;21.00;99.90
3408;DHT22;1717;50.240;8.406;2023-10-08T13:03:04;21.10;99.90
3408;DHT22;1717;50.240;8.406;2023-10-08T13:05:40;21.20;99.90
3408;DHT22;1717;50.240;8.406;2023-10-08T13:08:10;21.20;99.90
3408;DHT22;1717;50.240;8.406;2023-10-08T13:10:40;21.30;99.90
3408;DHT22;1717;50.240;8.406;2023-10-08T13:13:09;21.30;99.90
3408;DHT22;1717;50.240;8.406;2023-10-08T13:15:37;21.40;99.90
3408;DHT22;1717;50.240;8.406;2023-10-08T13:18:07;21.50;99.90
3408;DHT22;1717;50.240;8.406;2023-10-08T13:20:34;21.60;99.90
3408;DHT22;1717;50.240;8.406;2023-10-08T13:23:00;21.60;99.90
3408;DHT22;1717;50.240;8.406;2023-10-08T13:25:27;21.70;99.90
3408;DHT22;1717;50.240;8.406;2023-10-08T13:27:57;21.80;99.90
3408;DHT22;1717;50.240;8.406;2023-10-08T13:30:24;21.80;99.90
3408;DHT22;1717;50.240;8.406;2023-10-08T13:32:52;21.90;99.90
3408;DHT22;1717;50.240;8.406;2023-10-08T13:35:19;22.00;99.90
3408;DHT22;1717;50.240;8.406;2023-10-08T13:37:46;22.00;99.90
3408;DHT22;1717;50.240;8.406;2023-10-08T13:40:13;22.10;99.90
3408;DHT22;1717;50.240;8.406;2023-10-08T13:42:41;22.10;99.90
3408;DHT22;1717;50.240;8.406;2023-10-08T13:45:10;22.10;99.80
3408;DHT22;1717;50.240;8.406;2023-10-08T13:47:51;22.20;99.80
3408;DHT22;1717;50.240;8.406;2023-10-08T13:50:18;22.20;99.60
3408;DHT22;1717;50.240;8.406;2023-10-08T13:52:47;22.20;99.50
3408;DHT22;1717;50.240;8.406;2023-10-08T13:55:14;22.30;99.50
3408;DHT22;1717;50.240;8.406;2023-10-08T13:57:44;22.20;99.40
3408;DHT22;1717;50.240;8.406;2023-10-08T14:00:14;22.20;99.30
3408;DHT22;1717;50.240;8.406;2023-10-08T14:02:42;22.20;99.20
3408;DHT22;1717;50.240;8.406;2023-10-08T14:05:10;22.20;99.20
3408;DHT22;1717;50.240;8.406;2023-10-08T14:07:41;22.20;99.10
3408;DHT22;1717;50.240;8.406;2023-10-08T14:10:10;22.20;99.20
3408;DHT22;1717;50.240;8.406;2023-10-08T14:12:45;22.10;99.20
3408;DHT22;1717;50.240;8.406;2023-10-08T14:15:16;22.10;99.20
3408;DHT22;1717;50.240;8.406;2023-10-08T14:17:44;22.10;99.20
3408;DHT22;1717;50.240;8.406;2023-10-08T14:20:14;22.10;99.30
3408;DHT22;1717;50.240;8.406;2023-10-08T14:22:47;22.00;99.30
3408;DHT22;1717;50.240;8.406;2023-10-08T14:25:18;22.00;99.40
3408;DHT22;1717;50.240;8.406;2023-10-08T14:27:50;22.00;99.50
3408;DHT22;1717;50.240;8.406;2023-10-08T14:30:20;21.90;99.50
3408;DHT22;1717;50.240;8.406;2023-10-08T14:32:49;21.90;99.40
3408;DHT22;1717;50.240;8.406;2023-10-08T14:35:16;21.90;99.40
3408;DHT22;1717;50.240;8.406;2023-10-08T14:38:00;21.90;99.40
3408;DHT22;1717;50.240;8.406;2023-10-08T14:40:45;21.80;99.50
3408;DHT22;1717;50.240;8.406;2023-10-08T14:43:30;21.80;99.50
3408;DHT22;1717;50.240;8.406;2023-10-08T14:46:01;21.70;99.40
3408;DHT22;1717;50.240;8.406;2023-10-08T14:48:30;21.70;99.50
3408;DHT22;1717;50.240;8.406;2023-10-08T14:51:00;21.70;99.50
3408;DHT22;1717;50.240;8.406;2023-10-08T14:53:28;21.60;99.60
3408;DHT22;1717;50.240;8.406;2023-10-08T14:55:55;21.60;99.60
3408;DHT22;1717;50.240;8.406;2023-10-08T14:58:23;21.60;99.60
3408;DHT22;1717;50.240;8.406;2023-10-08T15:00:51;21.60;99.60
3408;DHT22;1717;50.240;8.406;2023-10-08T15:03:21;21.60;99.60
3408;DHT22;1717;50.240;8.406;2023-10-08T15:05:48;21.40;99.60
3408;DHT22;1717;50.240;8.406;2023-10-08T15:08:15;21.40;99.90
3408;DHT22;1717;50.240;8.406;2023-10-08T15:10:44;21.30;99.90
3408;DHT22;1717;50.240;8.406;2023-10-08T15:13:12;21.30;99.90
3408;DHT22;1717;50.240;8.406;2023-10-08T15:15:39;21.30;99.90
3408;DHT22;1717;50.240;8.406;2023-10-08T15:18:08;21.30;99.90
3408;DHT22;1717;50.240;8.406;2023-10-08T15:20:38;21.30;99.90
3408;DHT22;1717;50.240;8.406;2023-10-08T15:23:06;21.30;99.90
3408;DHT22;1717;50.240;8.406;2023-10-08T15:25:37;21.30;99.90
3408;DHT22;1717;50.240;8.406;2023-10-08T15:28:04;21.30;99.90
3408;DHT22;1717;50.240;8.406;2023-10-08T15:30:31;21.30;99.90
3408;DHT22;1717;50.240;8.406;2023-10-08T15:32:59;21.30;99.90
3408;DHT22;1717;50.240;8.406;2023-10-08T15:35:26;21.30;99.90
3408;DHT22;1717;50.240;8.406;2023-10-08T15:37:54;21.30;99.90
3408;DHT22;1717;50.240;8.406;2023-10-08T15:40:22;21.30;99.90
3408;DHT22;1717;50.240;8.406;2023-10-08T15:42:51;21.30;99.90
3408;DHT22;1717;50.240;8.406;2023-10-08T15:45:18;21.30;99.90
3408;DHT22;1717;50.240;8.406;2023-10-08T15:47:45;21.30;99.90
3408;DHT22;1717;50.240;8.406;2023-10-08T15:50:12;21.30;99.90
3408;DHT22;1717;50.240;8.406;2023-10-08T15:52:39;21.30;99.90
3408;DHT22;1717;50.240;8.406;2023-10-08T15:55:08;21.30;99.90
3408;DHT22;1717;50.240;8.406;2023-10-08T15:57:36;21.30;99.90
3408;DHT22;1717;50.240;8.406;2023-10-08T16:00:04;21.30;99.90
3408;DHT22;1717;50.240;8.406;2023-10-08T16:02:31;21.30;99.90
3408;DHT22;1717;50.240;8.406;2023-10-08T16:04:59;21.30;99.90
3408;DHT22;1717;50.240;8.406;2023-10-08T16:07:26;21.30;99.90
3408;DHT22;1717;50.240;8.406;2023-10-08T16:09:53;21.20;99.90
3408;DHT22;1717;50.240;8.406;2023-10-08T16:12:21;21.20;99.90
3408;DHT22;1717;50.240;8.406;2023-10-08T16:14:48;21.20;99.90
3408;DHT22;1717;50.240;8.406;2023-10-08T16:17:15;21.10;99.90
3408;DHT22;1717;50.240;8.406;2023-10-08T16:19:44;21.10;99.90
3408;DHT22;1717;50.240;8.406;2023-10-08T16:22:11;21.00;99.90
3408;DHT22;1717;50.240;8.406;2023-10-08T16:24:39;21.00;99.90
3408;DHT22;1717;50.240;8.406;2023-10-08T16:27:06;20.90;99.90
3408;DHT22;1717;50.240;8.406;2023-10-08T16:29:34;20.90;99.90